sensor_id;sensor_type;location;lat;lon;timestamp;pressure;altitude;pressure_sealevel;temperature;humidity
58622;BME280;44389;51.578;5.456;2023-03-13T00:01:22;100166.75;;;8.41;100.00
58622;BME280;44389;51.578;5.456;2023-03-13T00:03:48;100161.59;;;8.39;100.00
58622;BME280;44389;51.578;5.456;2023-03-13T00:06:14;100160.75;;;8.40;100.00
58622;BME280;44389;51.578;5.456;2023-03-13T00:08:40;100145.97;;;8.32;100.00
58622;BME280;44389;51.578;5.456;2023-03-13T00:11:09;100135.69;;;8.32;100.00
58622;BME280;44389;51.578;5.456;2023-03-13T00:13:35;100128.75;;;8.28;100.00
58622;BME280;44389;51.578;5.456;2023-03-13T00:16:02;100127.78;;;8.24;100.00
58622;BME280;44389;51.578;5.456;2023-03-13T00:18:28;100119.25;;;8.25;100.00
58622;BME280;44389;51.578;5.456;2023-03-13T00:21:01;100120.88;;;8.21;100.00
58622;BME280;44389;51.578;5.456;2023-03-13T00:23:28;100109.66;;;8.18;100.00
58622;BME280;44389;51.578;5.456;2023-03-13T00:26:03;100108.69;;;8.14;100.00
58622;BME280;44389;51.578;5.456;2023-03-13T00:28:30;100101.69;;;8.08;100.00
58622;BME280;44389;51.578;5.456;2023-03-13T00:31:00;100100.97;;;8.14;100.00
58622;BME280;44389;51.578;5.456;2023-03-13T00:33:26;100099.09;;;8.07;100.00
58622;BME280;44389;51.578;5.456;2023-03-13T00:35:51;100082.75;;;8.03;100.00
58622;BME280;44389;51.578;5.456;2023-03-13T00:38:16;100073.25;;;8.01;100.00
58622;BME280;44389;51.578;5.456;2023-03-13T00:40:42;100071.50;;;8.00;100.00
58622;BME280;44389;51.578;5.456;2023-03-13T00:43:07;100057.75;;;7.98;100.00
58622;BME280;44389;51.578;5.456;2023-03-13T00:45:32;100052.63;;;7.98;100.00
58622;BME280;44389;51.578;5.456;2023-03-13T00:47:57;100052.59;;;7.96;100.00
58622;BME280;44389;51.578;5.456;2023-03-13T00:50:23;100054.31;;;7.96;100.00
58622;BME280;44389;51.578;5.456;2023-03-13T00:52:48;100044.03;;;7.96;100.00
58622;BME280;44389;51.578;5.456;2023-03-13T00:55:13;100038.94;;;7.97;100.00
58622;BME280;44389;51.578;5.456;2023-03-13T00:57:39;100032.06;;;7.96;100.00
58622;BME280;44389;51.578;5.456;2023-03-13T01:00:04;100027.81;;;7.97;100.00
58622;BME280;44389;51.578;5.456;2023-03-13T01:02:30;100015.06;;;8.00;100.00
58622;BME280;44389;51.578;5.456;2023-03-13T01:04:56;100016.69;;;7.98;100.00
58622;BME280;44389;51.578;5.456;2023-03-13T01:07:21;100005.63;;;7.99;100.00
58622;BME280;44389;51.578;5.456;2023-03-13T01:09:46;100009.94;;;8.00;100.00
58622;BME280;44389;51.578;5.456;2023-03-13T01:12:11;99996.28;;;8.01;100.00
58622;BME280;44389;51.578;5.456;2023-03-13T01:14:37;99994.59;;;8.03;100.00
58622;BME280;44389;51.578;5.456;2023-03-13T01:17:02;99992.09;;;8.04;100.00
58622;BME280;44389;51.578;5.456;2023-03-13T01:19:27;99977.56;;;8.05;100.00
58622;BME280;44389;51.578;5.456;2023-03-13T01:21:53;99971.69;;;8.11;100.00
58622;BME280;44389;51.578;5.456;2023-03-13T01:24:18;99975.22;;;8.14;100.00
58622;BME280;44389;51.578;5.456;2023-03-13T01:26:44;99959.97;;;8.20;100.00
58622;BME280;44389;51.578;5.456;2023-03-13T01:29:09;99956.63;;;8.23;100.00
58622;BME280;44389;51.578;5.456;2023-03-13T01:31:35;99950.66;;;8.24;100.00
58622;BME280;44389;51.578;5.456;2023-03-13T01:34:02;99949.91;;;8.28;100.00
58622;BME280;44389;51.578;5.456;2023-03-13T01:36:28;99951.72;;;8.34;100.00
58622;BME280;44389;51.578;5.456;2023-03-13T01:38:56;99950.13;;;8.37;100.00
58622;BME280;44389;51.578;5.456;2023-03-13T01:41:22;99937.41;;;8.42;100.00
58622;BME280;44389;51.578;5.456;2023-03-13T01:43:48;99932.47;;;8.50;100.00
58622;BME280;44389;51.578;5.456;2023-03-13T01:46:17;99927.41;;;8.53;100.00
58622;BME280;44389;51.578;5.456;2023-03-13T01:49:04;99922.38;;;8.57;100.00
58622;BME280;44389;51.578;5.456;2023-03-13T01:51:34;99913.91;;;8.62;100.00
58622;BME280;44389;51.578;5.456;2023-03-13T01:59:16;99891.91;;;8.73;100.00
58622;BME280;44389;51.578;5.456;2023-03-13T02:01:44;99885.13;;;8.77;100.00
58622;BME280;44389;51.578;5.456;2023-03-13T02:04:13;99884.34;;;8.81;100.00
58622;BME280;44389;51.578;5.456;2023-03-13T02:06:42;99871.59;;;8.85;100.00
58622;BME280;44389;51.578;5.456;2023-03-13T02:09:13;99869.16;;;8.92;100.00
58622;BME280;44389;51.578;5.456;2023-03-13T02:14:12;99855.69;;;9.03;100.00
58622;BME280;44389;51.578;5.456;2023-03-13T02:16:38;99837.78;;;9.08;100.00
58622;BME280;44389;51.578;5.456;2023-03-13T02:19:15;99848.19;;;9.14;100.00
58622;BME280;44389;51.578;5.456;2023-03-13T02:21:46;99839.69;;;9.18;100.00
58622;BME280;44389;51.578;5.456;2023-03-13T02:24:31;99815.78;;;9.24;100.00
58622;BME280;44389;51.578;5.456;2023-03-13T02:26:59;99804.69;;;9.27;100.00
58622;BME280;44389;51.578;5.456;2023-03-13T02:29:25;99795.31;;;9.29;100.00
58622;BME280;44389;51.578;5.456;2023-03-13T02:31:50;99782.47;;;9.30;100.00
58622;BME280;44389;51.578;5.456;2023-03-13T02:34:20;99783.34;;;9.31;100.00
58622;BME280;44389;51.578;5.456;2023-03-13T02:36:49;99796.28;;;9.35;100.00
58622;BME280;44389;51.578;5.456;2023-03-13T02:39:16;99797.13;;;9.36;100.00
58622;BME280;44389;51.578;5.456;2023-03-13T02:41:43;99803.28;;;9.43;100.00
58622;BME280;44389;51.578;5.456;2023-03-13T02:44:10;99799.03;;;9.46;100.00
58622;BME280;44389;51.578;5.456;2023-03-13T02:46:48;99787.94;;;9.49;100.00
58622;BME280;44389;51.578;5.456;2023-03-13T02:49:40;99802.59;;;9.53;100.00
58622;BME280;44389;51.578;5.456;2023-03-13T02:52:19;99802.56;;;9.51;100.00
58622;BME280;44389;51.578;5.456;2023-03-13T02:54:47;99787.13;;;9.51;100.00
58622;BME280;44389;51.578;5.456;2023-03-13T02:57:14;99781.22;;;9.55;100.00
58622;BME280;44389;51.578;5.456;2023-03-13T02:59:39;99787.25;;;9.59;100.00
58622;BME280;44389;51.578;5.456;2023-03-13T03:02:05;99789.88;;;9.61;100.00
58622;BME280;44389;51.578;5.456;2023-03-13T03:04:30;99790.81;;;9.66;100.00
58622;BME280;44389;51.578;5.456;2023-03-13T03:06:56;99790.84;;;9.69;100.00
58622;BME280;44389;51.578;5.456;2023-03-13T03:09:22;99793.47;;;9.72;100.00
58622;BME280;44389;51.578;5.456;2023-03-13T03:11:48;99790.13;;;9.76;100.00
58622;BME280;44389;51.578;5.456;2023-03-13T03:14:14;99794.41;;;9.77;100.00
58622;BME280;44389;51.578;5.456;2023-03-13T03:16:39;99792.75;;;9.82;100.00
58622;BME280;44389;51.578;5.456;2023-03-13T03:19:05;99786.84;;;9.86;100.00
58622;BME280;44389;51.578;5.456;2023-03-13T03:21:31;99784.28;;;9.88;100.00
58622;BME280;44389;51.578;5.456;2023-03-13T03:23:56;99782.63;;;9.92;100.00
58622;BME280;44389;51.578;5.456;2023-03-13T03:26:22;99776.69;;;9.96;100.00
58622;BME280;44389;51.578;5.456;2023-03-13T03:28:47;99781.03;;;10.00;100.00
58622;BME280;44389;51.578;5.456;2023-03-13T03:31:14;99775.03;;;10.01;100.00
58622;BME280;44389;51.578;5.456;2023-03-13T03:33:40;99761.34;;;10.03;100.00
58622;BME280;44389;51.578;5.456;2023-03-13T03:36:09;99779.38;;;10.05;100.00
58622;BME280;44389;51.578;5.456;2023-03-13T03:38:35;99769.13;;;10.08;100.00
58622;BME280;44389;51.578;5.456;2023-03-13T03:41:00;99765.78;;;10.12;100.00
58622;BME280;44389;51.578;5.456;2023-03-13T03:43:26;99765.72;;;10.11;100.00
58622;BME280;44389;51.578;5.456;2023-03-13T03:45:51;99776.09;;;10.15;100.00
58622;BME280;44389;51.578;5.456;2023-03-13T03:48:17;99761.50;;;10.16;100.00
58622;BME280;44389;51.578;5.456;2023-03-13T03:50:42;99770.09;;;10.15;100.00
58622;BME280;44389;51.578;5.456;2023-03-13T03:53:07;99766.69;;;10.17;100.00
58622;BME280;44389;51.578;5.456;2023-03-13T03:55:33;99776.94;;;10.16;100.00
58622;BME280;44389;51.578;5.456;2023-03-13T03:57:59;99775.28;;;10.18;100.00
58622;BME280;44389;51.578;5.456;2023-03-13T04:00:24;99765.00;;;10.21;100.00
58622;BME280;44389;51.578;5.456;2023-03-13T04:02:52;99761.66;;;10.25;100.00
58622;BME280;44389;51.578;5.456;2023-03-13T04:05:17;99767.66;;;10.26;100.00
58622;BME280;44389;51.578;5.456;2023-03-13T04:07:42;99760.84;;;10.28;100.00
58622;BME280;44389;51.578;5.456;2023-03-13T04:10:08;99760.84;;;10.31;100.00
58622;BME280;44389;51.578;5.456;2023-03-13T04:12:34;99766.84;;;10.31;100.00
58622;BME280;44389;51.578;5.456;2023-03-13T04:14:59;99751.47;;;10.34;100.00
58622;BME280;44389;51.578;5.456;2023-03-13T04:17:24;99757.56;;;10.38;100.00
58622;BME280;44389;51.578;5.456;2023-03-13T04:19:50;99749.84;;;10.40;100.00
58622;BME280;44389;51.578;5.456;2023-03-13T04:22:15;99749.88;;;10.44;100.00
58622;BME280;44389;51.578;5.456;2023-03-13T04:24:40;99742.16;;;10.44;100.00
58622;BME280;44389;51.578;5.456;2023-03-13T04:27:06;99730.19;;;10.49;100.00
58622;BME280;44389;51.578;5.456;2023-03-13T04:29:32;99730.28;;;10.56;100.00
58622;BME280;44389;51.578;5.456;2023-03-13T04:31:57;99721.72;;;10.60;100.00
58622;BME280;44389;51.578;5.456;2023-03-13T04:34:23;99724.38;;;10.64;100.00
58622;BME280;44389;51.578;5.456;2023-03-13T04:36:48;99711.50;;;10.66;100.00
58622;BME280;44389;51.578;5.456;2023-03-13T04:39:13;99712.41;;;10.69;100.00
58622;BME280;44389;51.578;5.456;2023-03-13T04:41:39;99698.75;;;10.78;100.00
58622;BME280;44389;51.578;5.456;2023-03-13T04:44:04;99701.34;;;10.81;100.00
58622;BME280;44389;51.578;5.456;2023-03-13T04:46:29;99703.94;;;10.83;100.00
58622;BME280;44389;51.578;5.456;2023-03-13T04:48:55;99693.69;;;10.89;100.00
58622;BME280;44389;51.578;5.456;2023-03-13T04:51:20;99692.00;;;10.93;100.00
58622;BME280;44389;51.578;5.456;2023-03-13T04:53:45;99697.25;;;10.99;100.00
58622;BME280;44389;51.578;5.456;2023-03-13T04:56:20;99692.16;;;11.07;100.00
58622;BME280;44389;51.578;5.456;2023-03-13T04:58:45;99699.06;;;11.11;100.00
58622;BME280;44389;51.578;5.456;2023-03-13T05:01:11;99699.06;;;11.11;100.00
58622;BME280;44389;51.578;5.456;2023-03-13T05:03:36;99677.53;;;11.10;100.00
58622;BME280;44389;51.578;5.456;2023-03-13T05:06:01;99687.91;;;11.16;100.00
58622;BME280;44389;51.578;5.456;2023-03-13T05:08:26;99680.25;;;11.23;100.00
58622;BME280;44389;51.578;5.456;2023-03-13T05:10:52;99663.06;;;11.25;100.00
58622;BME280;44389;51.578;5.456;2023-03-13T05:13:17;99675.97;;;11.28;100.00
58622;BME280;44389;51.578;5.456;2023-03-13T05:15:42;99669.16;;;11.33;100.00
58622;BME280;44389;51.578;5.456;2023-03-13T05:18:08;99677.78;;;11.38;100.00
58622;BME280;44389;51.578;5.456;2023-03-13T05:20:33;99683.81;;;11.40;100.00
58622;BME280;44389;51.578;5.456;2023-03-13T05:22:58;99673.50;;;11.40;100.00
58622;BME280;44389;51.578;5.456;2023-03-13T05:25:24;99670.97;;;11.48;100.00
58622;BME280;44389;51.578;5.456;2023-03-13T05:27:49;99666.69;;;11.51;100.00
58622;BME280;44389;51.578;5.456;2023-03-13T05:30:14;99653.81;;;11.55;100.00
58622;BME280;44389;51.578;5.456;2023-03-13T05:32:40;99660.72;;;11.59;100.00
58622;BME280;44389;51.578;5.456;2023-03-13T05:35:05;99662.44;;;11.60;100.00
58622;BME280;44389;51.578;5.456;2023-03-13T05:37:30;99660.72;;;11.59;100.00
58622;BME280;44389;51.578;5.456;2023-03-13T05:39:56;99672.78;;;11.63;100.00
58622;BME280;44389;51.578;5.456;2023-03-13T05:42:21;99659.91;;;11.66;100.00
58622;BME280;44389;51.578;5.456;2023-03-13T05:44:46;99672.84;;;11.69;100.00
58622;BME280;44389;51.578;5.456;2023-03-13T05:47:11;99658.19;;;11.69;100.00
58622;BME280;44389;51.578;5.456;2023-03-13T05:49:37;99659.09;;;11.73;100.00
58622;BME280;44389;51.578;5.456;2023-03-13T05:52:02;99671.97;;;11.70;100.00
58622;BME280;44389;51.578;5.456;2023-03-13T05:54:27;99665.13;;;11.75;100.00
58622;BME280;44389;51.578;5.456;2023-03-13T05:56:53;99662.53;;;11.75;100.00
58622;BME280;44389;51.578;5.456;2023-03-13T05:59:18;99671.16;;;11.77;100.00
58622;BME280;44389;51.578;5.456;2023-03-13T06:01:43;99674.59;;;11.79;100.00
58622;BME280;44389;51.578;5.456;2023-03-13T06:04:09;99670.28;;;11.77;100.00
58622;BME280;44389;51.578;5.456;2023-03-13T06:06:34;99678.88;;;11.77;100.00
58622;BME280;44389;51.578;5.456;2023-03-13T06:08:59;99665.13;;;11.80;100.00
58622;BME280;44389;51.578;5.456;2023-03-13T06:11:25;99663.44;;;11.80;100.00
58622;BME280;44389;51.578;5.456;2023-03-13T06:13:51;99674.59;;;11.79;100.00
58622;BME280;44389;51.578;5.456;2023-03-13T06:16:17;99663.47;;;11.86;100.00
58622;BME280;44389;51.578;5.456;2023-03-13T06:18:42;99654.03;;;11.93;100.00
58622;BME280;44389;51.578;5.456;2023-03-13T06:21:07;99648.88;;;11.92;100.00
58622;BME280;44389;51.578;5.456;2023-03-13T06:23:34;99641.94;;;11.88;100.00
58622;BME280;44389;51.578;5.456;2023-03-13T06:25:59;99647.13;;;11.92;100.00
58622;BME280;44389;51.578;5.456;2023-03-13T06:28:24;99644.56;;;11.92;100.00
58622;BME280;44389;51.578;5.456;2023-03-13T06:30:50;99654.88;;;11.91;100.00
58622;BME280;44389;51.578;5.456;2023-03-13T06:33:15;99652.38;;;11.97;100.00
58622;BME280;44389;51.578;5.456;2023-03-13T06:35:42;99648.91;;;11.98;100.00
58622;BME280;44389;51.578;5.456;2023-03-13T06:38:09;99647.22;;;12.00;100.00
58622;BME280;44389;51.578;5.456;2023-03-13T06:40:34;99652.38;;;12.00;100.00
58622;BME280;44389;51.578;5.456;2023-03-13T06:42:59;99654.09;;;12.04;100.00
58622;BME280;44389;51.578;5.456;2023-03-13T06:45:25;99655.81;;;11.99;100.00
58622;BME280;44389;51.578;5.456;2023-03-13T06:47:50;99652.38;;;12.00;100.00
58622;BME280;44389;51.578;5.456;2023-03-13T06:50:16;99654.09;;;12.01;100.00
58622;BME280;44389;51.578;5.456;2023-03-13T06:52:42;99654.09;;;12.01;100.00
58622;BME280;44389;51.578;5.456;2023-03-13T06:55:08;99659.28;;;12.02;100.00
58622;BME280;44389;51.578;5.456;2023-03-13T06:57:33;99650.66;;;12.05;100.00
58622;BME280;44389;51.578;5.456;2023-03-13T06:59:59;99632.59;;;12.07;100.00
58622;BME280;44389;51.578;5.456;2023-03-13T07:02:24;99639.53;;;12.12;100.00
58622;BME280;44389;51.578;5.456;2023-03-13T07:04:49;99658.44;;;12.13;100.00
58622;BME280;44389;51.578;5.456;2023-03-13T07:07:15;99651.56;;;12.13;100.00
58622;BME280;44389;51.578;5.456;2023-03-13T07:09:40;99651.59;;;12.15;100.00
58622;BME280;44389;51.578;5.456;2023-03-13T07:12:05;99634.34;;;12.17;100.00
58622;BME280;44389;51.578;5.456;2023-03-13T07:14:31;99642.97;;;12.19;100.00
58622;BME280;44389;51.578;5.456;2023-03-13T07:16:58;99648.16;;;12.19;100.00
58622;BME280;44389;51.578;5.456;2023-03-13T07:19:24;99638.69;;;12.29;100.00
58622;BME280;44389;51.578;5.456;2023-03-13T07:21:50;99629.25;;;12.31;100.00
58622;BME280;44389;51.578;5.456;2023-03-13T07:24:17;99633.53;;;12.29;100.00
58622;BME280;44389;51.578;5.456;2023-03-13T07:26:42;99630.09;;;12.30;100.00
58622;BME280;44389;51.578;5.456;2023-03-13T07:29:08;99623.22;;;12.35;100.00
58622;BME280;44389;51.578;5.456;2023-03-13T07:31:33;99638.72;;;12.35;100.00
58622;BME280;44389;51.578;5.456;2023-03-13T07:33:59;99642.19;;;12.39;100.00
58622;BME280;44389;51.578;5.456;2023-03-13T07:36:24;99648.22;;;12.45;100.00
58622;BME280;44389;51.578;5.456;2023-03-13T07:38:50;99655.97;;;12.48;100.00
58622;BME280;44389;51.578;5.456;2023-03-13T07:41:17;99649.09;;;12.50;100.00
58622;BME280;44389;51.578;5.456;2023-03-13T07:43:43;99633.59;;;12.50;100.00
58622;BME280;44389;51.578;5.456;2023-03-13T07:46:11;99653.41;;;12.53;100.00
58622;BME280;44389;51.578;5.456;2023-03-13T07:48:40;99643.06;;;12.50;100.00
58622;BME280;44389;51.578;5.456;2023-03-13T07:51:09;99651.69;;;12.47;100.00
58622;BME280;44389;51.578;5.456;2023-03-13T07:53:35;99643.91;;;12.46;100.00
58622;BME280;44389;51.578;5.456;2023-03-13T07:56:05;99650.78;;;12.39;100.00
58622;BME280;44389;51.578;5.456;2023-03-13T07:58:33;99646.47;;;12.37;100.00
58622;BME280;44389;51.578;5.456;2023-03-13T08:01:00;99648.19;;;12.39;100.00
58622;BME280;44389;51.578;5.456;2023-03-13T08:03:26;99638.72;;;12.38;100.00
58622;BME280;44389;51.578;5.456;2023-03-13T08:05:59;99654.25;;;12.44;100.00
58622;BME280;44389;51.578;5.456;2023-03-13T08:08:24;99634.47;;;12.54;100.00
58622;BME280;44389;51.578;5.456;2023-03-13T08:10:50;99640.50;;;12.64;100.00
58622;BME280;44389;51.578;5.456;2023-03-13T08:13:15;99641.38;;;12.69;100.00
58622;BME280;44389;51.578;5.456;2023-03-13T08:15:40;99618.09;;;12.77;100.00
58622;BME280;44389;51.578;5.456;2023-03-13T08:18:06;99635.34;;;12.79;100.00
58622;BME280;44389;51.578;5.456;2023-03-13T08:20:31;99631.91;;;12.80;100.00
58622;BME280;44389;51.578;5.456;2023-03-13T08:22:56;99625.88;;;12.84;100.00
58622;BME280;44389;51.578;5.456;2023-03-13T08:25:22;99618.13;;;12.88;100.00
58622;BME280;44389;51.578;5.456;2023-03-13T08:27:47;99608.63;;;12.90;100.00
58622;BME280;44389;51.578;5.456;2023-03-13T08:30:12;99628.47;;;12.91;100.00
58622;BME280;44389;51.578;5.456;2023-03-13T08:32:38;99608.63;;;12.88;100.00
58622;BME280;44389;51.578;5.456;2023-03-13T08:35:03;99631.06;;;12.71;100.00
58622;BME280;44389;51.578;5.456;2023-03-13T08:37:29;99623.28;;;12.63;100.00
58622;BME280;44389;51.578;5.456;2023-03-13T08:39:54;99627.59;;;12.58;100.00
58622;BME280;44389;51.578;5.456;2023-03-13T08:42:21;99620.66;;;12.50;100.00
58622;BME280;44389;51.578;5.456;2023-03-13T08:44:46;99618.06;;;12.44;100.00
58622;BME280;44389;51.578;5.456;2023-03-13T08:47:12;99618.03;;;12.38;100.00
58622;BME280;44389;51.578;5.456;2023-03-13T08:49:37;99618.91;;;12.34;100.00
58622;BME280;44389;51.578;5.456;2023-03-13T08:52:04;99610.31;;;12.35;100.00
58622;BME280;44389;51.578;5.456;2023-03-13T08:54:29;99614.59;;;12.38;100.00
58622;BME280;44389;51.578;5.456;2023-03-13T08:56:55;99627.53;;;12.47;100.00
58622;BME280;44389;51.578;5.456;2023-03-13T08:59:20;99637.94;;;12.58;100.00
58622;BME280;44389;51.578;5.456;2023-03-13T09:01:45;99619.84;;;12.70;100.00
58622;BME280;44389;51.578;5.456;2023-03-13T09:04:11;99611.25;;;12.83;100.00
58622;BME280;44389;51.578;5.456;2023-03-13T09:06:37;99598.28;;;13.04;100.00
58622;BME280;44389;51.578;5.456;2023-03-13T09:09:04;99598.28;;;13.21;99.77
58622;BME280;44389;51.578;5.456;2023-03-13T09:11:30;99595.69;;;13.33;98.83
58622;BME280;44389;51.578;5.456;2023-03-13T09:13:56;99578.44;;;13.38;97.42
58622;BME280;44389;51.578;5.456;2023-03-13T09:16:27;99586.22;;;13.37;96.68
58622;BME280;44389;51.578;5.456;2023-03-13T09:18:53;99578.41;;;13.32;97.06
58622;BME280;44389;51.578;5.456;2023-03-13T09:21:27;99566.34;;;13.36;97.88
58622;BME280;44389;51.578;5.456;2023-03-13T09:23:53;99559.44;;;13.48;97.56
58622;BME280;44389;51.578;5.456;2023-03-13T09:26:19;99563.69;;;13.71;96.29
58622;BME280;44389;51.578;5.456;2023-03-13T09:28:45;99564.50;;;13.86;95.96
58622;BME280;44389;51.578;5.456;2023-03-13T09:31:11;99550.53;;;14.08;95.93
58622;BME280;44389;51.578;5.456;2023-03-13T09:33:37;99565.09;;;14.31;94.40
58622;BME280;44389;51.578;5.456;2023-03-13T09:36:03;99557.19;;;14.49;94.32
58622;BME280;44389;51.578;5.456;2023-03-13T09:38:29;99545.84;;;14.71;92.01
58622;BME280;44389;51.578;5.456;2023-03-13T09:40:54;99518.06;;;14.80;89.82
58622;BME280;44389;51.578;5.456;2023-03-13T09:46:03;99544.13;;;14.70;89.37
58622;BME280;44389;51.578;5.456;2023-03-13T09:48:32;99521.41;;;14.96;88.42
58622;BME280;44389;51.578;5.456;2023-03-13T09:51:20;99524.69;;;15.12;86.86
58622;BME280;44389;51.578;5.456;2023-03-13T09:53:52;99528.19;;;15.08;86.11
58622;BME280;44389;51.578;5.456;2023-03-13T09:56:23;99521.44;;;14.92;85.35
58622;BME280;44389;51.578;5.456;2023-03-13T09:58:53;99545.84;;;14.69;85.99
58622;BME280;44389;51.578;5.456;2023-03-13T10:01:23;99537.28;;;14.55;86.50
58622;BME280;44389;51.578;5.456;2023-03-13T10:04:05;99526.03;;;14.57;86.67
58622;BME280;44389;51.578;5.456;2023-03-13T10:06:39;99526.09;;;14.49;85.71
58622;BME280;44389;51.578;5.456;2023-03-13T10:09:15;99535.59;;;14.46;86.76
58622;BME280;44389;51.578;5.456;2023-03-13T10:11:59;99531.19;;;14.65;87.64
58622;BME280;44389;51.578;5.456;2023-03-13T10:14:30;99513.50;;;15.07;83.54
58622;BME280;44389;51.578;5.456;2023-03-13T10:17:06;99513.38;;;15.20;83.45
58622;BME280;44389;51.578;5.456;2023-03-13T10:19:36;99520.38;;;15.11;82.44
58622;BME280;44389;51.578;5.456;2023-03-13T10:22:11;99505.69;;;15.12;81.29
58622;BME280;44389;51.578;5.456;2023-03-13T10:24:51;99505.41;;;15.37;82.53
58622;BME280;44389;51.578;5.456;2023-03-13T10:27:18;99502.84;;;15.32;80.62
58622;BME280;44389;51.578;5.456;2023-03-13T10:29:44;99507.94;;;15.40;79.83
58622;BME280;44389;51.578;5.456;2023-03-13T10:32:13;99514.00;;;15.42;79.81
58622;BME280;44389;51.578;5.456;2023-03-13T10:34:59;99489.75;;;15.44;80.25
58622;BME280;44389;51.578;5.456;2023-03-13T10:37:39;99475.16;;;15.34;79.57
58622;BME280;44389;51.578;5.456;2023-03-13T10:42:44;99487.63;;;15.74;77.62
58622;BME280;44389;51.578;5.456;2023-03-13T10:45:14;99494.25;;;15.97;77.09
58622;BME280;44389;51.578;5.456;2023-03-13T10:47:40;99478.75;;;15.92;75.95
58622;BME280;44389;51.578;5.456;2023-03-13T10:50:06;99477.16;;;15.80;76.79
58622;BME280;44389;51.578;5.456;2023-03-13T10:52:43;99465.81;;;15.88;76.08
58622;BME280;44389;51.578;5.456;2023-03-13T10:55:11;99492.88;;;15.71;77.32
58622;BME280;44389;51.578;5.456;2023-03-13T10:57:38;99485.22;;;15.59;77.74
58622;BME280;44389;51.578;5.456;2023-03-13T11:02:58;99459.56;;;15.34;80.55
58622;BME280;44389;51.578;5.456;2023-03-13T11:05:40;99442.22;;;15.36;81.18
58622;BME280;44389;51.578;5.456;2023-03-13T11:08:20;99452.78;;;15.24;80.93
58622;BME280;44389;51.578;5.456;2023-03-13T11:11:16;99473.50;;;15.27;81.64
58622;BME280;44389;51.578;5.456;2023-03-13T11:13:43;99469.25;;;15.21;80.10
58622;BME280;44389;51.578;5.456;2023-03-13T11:16:22;99454.50;;;15.25;79.71
58622;BME280;44389;51.578;5.456;2023-03-13T11:22:01;99470.56;;;15.55;78.94
58622;BME280;44389;51.578;5.456;2023-03-13T11:24:42;99450.59;;;15.57;76.28
58622;BME280;44389;51.578;5.456;2023-03-13T11:27:18;99442.84;;;15.55;75.67
58622;BME280;44389;51.578;5.456;2023-03-13T11:33:03;99438.31;;;15.71;75.44
58622;BME280;44389;51.578;5.456;2023-03-13T11:35:44;99429.00;;;16.16;72.10
58622;BME280;44389;51.578;5.456;2023-03-13T11:38:28;99430.91;;;16.04;66.85
58622;BME280;44389;51.578;5.456;2023-03-13T11:44:23;99436.47;;;15.79;68.42
58622;BME280;44389;51.578;5.456;2023-03-13T11:52:37;99385.59;;;16.69;64.41
58622;BME280;44389;51.578;5.456;2023-03-13T11:56:26;99404.41;;;17.29;64.08
58622;BME280;44389;51.578;5.456;2023-03-13T12:01:16;99396.03;;;17.15;61.26
58622;BME280;44389;51.578;5.456;2023-03-13T12:04:21;99397.41;;;17.31;61.47
58622;BME280;44389;51.578;5.456;2023-03-13T12:09:41;99395.38;;;17.46;58.83
58622;BME280;44389;51.578;5.456;2023-03-13T12:15:13;99379.81;;;17.42;59.91
58622;BME280;44389;51.578;5.456;2023-03-13T12:18:19;99371.50;;;17.64;58.02
58622;BME280;44389;51.578;5.456;2023-03-13T12:21:01;99364.22;;;17.78;59.21
58622;BME280;44389;51.578;5.456;2023-03-13T12:26:11;99369.66;;;17.69;59.67
58622;BME280;44389;51.578;5.456;2023-03-13T12:29:05;99362.53;;;18.14;57.94
58622;BME280;44389;51.578;5.456;2023-03-13T12:31:37;99351.44;;;18.05;55.80
58622;BME280;44389;51.578;5.456;2023-03-13T12:34:22;99333.34;;;17.99;56.28
58622;BME280;44389;51.578;5.456;2023-03-13T12:36:54;99341.91;;;18.04;56.16
58622;BME280;44389;51.578;5.456;2023-03-13T12:44:51;99336.78;;;18.34;53.57
58622;BME280;44389;51.578;5.456;2023-03-13T12:47:32;99313.19;;;18.39;53.25
58622;BME280;44389;51.578;5.456;2023-03-13T12:50:13;99336.72;;;18.37;52.84
58622;BME280;44389;51.578;5.456;2023-03-13T12:58:36;99319.78;;;17.85;53.06
58622;BME280;44389;51.578;5.456;2023-03-13T13:01:04;99314.78;;;17.39;55.27
58622;BME280;44389;51.578;5.456;2023-03-13T13:04:04;99313.28;;;17.29;57.05
58622;BME280;44389;51.578;5.456;2023-03-13T13:09:24;99314.31;;;17.96;53.95
58622;BME280;44389;51.578;5.456;2023-03-13T13:11:50;99281.56;;;17.84;51.42
58622;BME280;44389;51.578;5.456;2023-03-13T13:16:47;99285.69;;;18.58;49.13
58622;BME280;44389;51.578;5.456;2023-03-13T13:24:59;99287.31;;;18.94;48.27
58622;BME280;44389;51.578;5.456;2023-03-13T13:29:56;99298.72;;;18.90;47.75
58622;BME280;44389;51.578;5.456;2023-03-13T13:35:04;99280.38;;;18.93;46.68
58622;BME280;44389;51.578;5.456;2023-03-13T13:37:31;99286.09;;;18.74;47.32
58622;BME280;44389;51.578;5.456;2023-03-13T13:42:49;99302.13;;;19.22;48.81
58622;BME280;44389;51.578;5.456;2023-03-13T13:47:43;99284.41;;;18.73;49.03
58622;BME280;44389;51.578;5.456;2023-03-13T13:50:38;99253.53;;;18.26;49.26
58622;BME280;44389;51.578;5.456;2023-03-13T13:53:32;99262.69;;;17.75;51.22
58622;BME280;44389;51.578;5.456;2023-03-13T13:55:59;99260.19;;;17.71;51.71
58622;BME280;44389;51.578;5.456;2023-03-13T13:58:29;99263.53;;;18.10;51.48
58622;BME280;44389;51.578;5.456;2023-03-13T14:01:04;99240.34;;;18.33;51.69
58622;BME280;44389;51.578;5.456;2023-03-13T14:03:37;99274.47;;;18.55;51.02
58622;BME280;44389;51.578;5.456;2023-03-13T14:06:27;99264.47;;;18.71;49.99
58622;BME280;44389;51.578;5.456;2023-03-13T14:08:57;99263.72;;;18.67;50.80
58622;BME280;44389;51.578;5.456;2023-03-13T14:11:32;99260.09;;;18.71;51.48
58622;BME280;44389;51.578;5.456;2023-03-13T14:16:36;99262.72;;;18.71;51.46
58622;BME280;44389;51.578;5.456;2023-03-13T14:19:02;99255.16;;;18.62;52.05
58622;BME280;44389;51.578;5.456;2023-03-13T14:21:27;99252.09;;;18.48;52.19